sensor_id;sensor_type;location;lat;lon;timestamp;P1;durP1;ratioP1;P2;durP2;ratioP2
27402;SDS011;14862;49.494;8.530;2023-03-31T00:00:52;7.38;;;2.10;;
27402;SDS011;14862;49.494;8.530;2023-03-31T00:03:18;7.10;;;1.80;;
27402;SDS011;14862;49.494;8.530;2023-03-31T00:05:47;5.47;;;2.15;;
27402;SDS011;14862;49.494;8.530;2023-03-31T00:08:17;5.97;;;1.90;;
27402;SDS011;14862;49.494;8.530;2023-03-31T00:10:44;12.63;;;2.05;;
27402;SDS011;14862;49.494;8.530;2023-03-31T00:13:10;6.90;;;2.10;;
27402;SDS011;14862;49.494;8.530;2023-03-31T00:15:35;6.93;;;2.33;;
27402;SDS011;14862;49.494;8.530;2023-03-31T00:18:01;7.43;;;1.92;;
27402;SDS011;14862;49.494;8.530;2023-03-31T00:20:26;10.00;;;2.28;;
27402;SDS011;14862;49.494;8.530;2023-03-31T00:22:51;10.07;;;3.30;;
27402;SDS011;14862;49.494;8.530;2023-03-31T00:25:18;4.18;;;1.73;;
27402;SDS011;14862;49.494;8.530;2023-03-31T00:27:44;10.25;;;2.22;;
27402;SDS011;14862;49.494;8.530;2023-03-31T00:30:11;11.68;;;3.53;;
27402;SDS011;14862;49.494;8.530;2023-03-31T00:32:36;9.77;;;2.65;;
27402;SDS011;14862;49.494;8.530;2023-03-31T00:35:02;9.30;;;1.80;;
27402;SDS011;14862;49.494;8.530;2023-03-31T00:37:28;7.93;;;2.30;;
27402;SDS011;14862;49.494;8.530;2023-03-31T00:39:53;8.70;;;2.33;;
27402;SDS011;14862;49.494;8.530;2023-03-31T00:42:18;8.48;;;2.33;;
27402;SDS011;14862;49.494;8.530;2023-03-31T00:49:54;9.20;;;2.47;;
27402;SDS011;14862;49.494;8.530;2023-03-31T00:52:25;11.05;;;2.78;;
27402;SDS011;14862;49.494;8.530;2023-03-31T00:54:58;8.07;;;2.35;;
27402;SDS011;14862;49.494;8.530;2023-03-31T00:57:26;9.80;;;2.70;;
27402;SDS011;14862;49.494;8.530;2023-03-31T00:59:57;9.30;;;2.47;;
27402;SDS011;14862;49.494;8.530;2023-03-31T01:02:23;9.38;;;2.80;;
27402;SDS011;14862;49.494;8.530;2023-03-31T01:04:51;10.27;;;2.85;;
27402;SDS011;14862;49.494;8.530;2023-03-31T01:09:49;9.27;;;2.67;;
27402;SDS011;14862;49.494;8.530;2023-03-31T01:12:18;8.63;;;3.00;;
27402;SDS011;14862;49.494;8.530;2023-03-31T01:14:45;11.02;;;2.80;;
27402;SDS011;14862;49.494;8.530;2023-03-31T01:17:10;5.90;;;2.83;;
27402;SDS011;14862;49.494;8.530;2023-03-31T01:19:53;8.48;;;2.67;;
27402;SDS011;14862;49.494;8.530;2023-03-31T01:30:18;7.45;;;2.95;;
27402;SDS011;14862;49.494;8.530;2023-03-31T01:35:31;9.48;;;2.30;;
27402;SDS011;14862;49.494;8.530;2023-03-31T01:43:34;8.73;;;2.47;;
27402;SDS011;14862;49.494;8.530;2023-03-31T01:51:01;7.95;;;1.88;;
27402;SDS011;14862;49.494;8.530;2023-03-31T01:58:23;9.27;;;1.97;;
27402;SDS011;14862;49.494;8.530;2023-03-31T02:00:49;8.20;;;2.40;;
27402;SDS011;14862;49.494;8.530;2023-03-31T02:03:20;11.15;;;2.70;;
27402;SDS011;14862;49.494;8.530;2023-03-31T02:05:47;9.55;;;2.45;;
27402;SDS011;14862;49.494;8.530;2023-03-31T02:08:14;7.97;;;2.45;;
27402;SDS011;14862;49.494;8.530;2023-03-31T02:10:41;6.95;;;2.20;;
27402;SDS011;14862;49.494;8.530;2023-03-31T02:13:07;7.63;;;2.10;;
27402;SDS011;14862;49.494;8.530;2023-03-31T02:15:36;8.35;;;2.50;;
27402;SDS011;14862;49.494;8.530;2023-03-31T02:18:03;8.88;;;2.17;;
27402;SDS011;14862;49.494;8.530;2023-03-31T02:20:30;10.07;;;1.90;;
27402;SDS011;14862;49.494;8.530;2023-03-31T02:22:56;9.98;;;2.22;;
27402;SDS011;14862;49.494;8.530;2023-03-31T02:25:23;7.70;;;2.13;;
27402;SDS011;14862;49.494;8.530;2023-03-31T02:27:51;13.18;;;2.83;;
27402;SDS011;14862;49.494;8.530;2023-03-31T02:30:17;9.55;;;2.20;;
27402;SDS011;14862;49.494;8.530;2023-03-31T02:32:43;10.57;;;2.25;;
27402;SDS011;14862;49.494;8.530;2023-03-31T02:35:15;9.32;;;2.30;;
27402;SDS011;14862;49.494;8.530;2023-03-31T02:37:41;12.95;;;2.75;;
27402;SDS011;14862;49.494;8.530;2023-03-31T02:40:11;9.75;;;2.42;;
27402;SDS011;14862;49.494;8.530;2023-03-31T02:42:38;11.82;;;2.15;;
27402;SDS011;14862;49.494;8.530;2023-03-31T02:45:05;10.18;;;2.20;;
27402;SDS011;14862;49.494;8.530;2023-03-31T02:47:31;8.48;;;2.08;;
27402;SDS011;14862;49.494;8.530;2023-03-31T02:49:58;11.98;;;2.53;;
27402;SDS011;14862;49.494;8.530;2023-03-31T02:55:11;8.35;;;2.30;;
27402;SDS011;14862;49.494;8.530;2023-03-31T03:15:06;13.07;;;2.50;;
27402;SDS011;14862;49.494;8.530;2023-03-31T03:17:39;8.70;;;2.33;;
27402;SDS011;14862;49.494;8.530;2023-03-31T03:20:05;7.28;;;2.08;;
27402;SDS011;14862;49.494;8.530;2023-03-31T03:22:35;9.25;;;2.40;;
27402;SDS011;14862;49.494;8.530;2023-03-31T03:25:01;10.02;;;1.88;;
27402;SDS011;14862;49.494;8.530;2023-03-31T03:27:26;5.73;;;2.00;;
27402;SDS011;14862;49.494;8.530;2023-03-31T03:29:52;10.18;;;2.30;;
27402;SDS011;14862;49.494;8.530;2023-03-31T03:32:17;9.02;;;2.33;;
27402;SDS011;14862;49.494;8.530;2023-03-31T03:34:42;7.73;;;1.90;;
27402;SDS011;14862;49.494;8.530;2023-03-31T03:37:08;8.13;;;1.98;;
27402;SDS011;14862;49.494;8.530;2023-03-31T03:39:33;5.95;;;1.80;;
27402;SDS011;14862;49.494;8.530;2023-03-31T03:41:58;5.55;;;1.52;;
27402;SDS011;14862;49.494;8.530;2023-03-31T03:44:23;5.40;;;2.27;;
27402;SDS011;14862;49.494;8.530;2023-03-31T03:46:48;6.82;;;2.00;;
27402;SDS011;14862;49.494;8.530;2023-03-31T03:49:14;8.65;;;1.73;;
27402;SDS011;14862;49.494;8.530;2023-03-31T03:51:39;9.60;;;2.03;;
27402;SDS011;14862;49.494;8.530;2023-03-31T03:54:04;11.30;;;3.28;;
27402;SDS011;14862;49.494;8.530;2023-03-31T03:56:30;6.28;;;1.70;;
27402;SDS011;14862;49.494;8.530;2023-03-31T03:58:55;7.18;;;1.98;;
27402;SDS011;14862;49.494;8.530;2023-03-31T04:01:21;7.70;;;1.98;;
27402;SDS011;14862;49.494;8.530;2023-03-31T04:03:46;8.25;;;2.55;;
27402;SDS011;14862;49.494;8.530;2023-03-31T04:06:11;9.47;;;1.97;;
27402;SDS011;14862;49.494;8.530;2023-03-31T04:08:37;10.40;;;3.38;;
27402;SDS011;14862;49.494;8.530;2023-03-31T04:11:02;11.18;;;2.60;;
27402;SDS011;14862;49.494;8.530;2023-03-31T04:13:27;13.13;;;2.88;;
27402;SDS011;14862;49.494;8.530;2023-03-31T04:15:53;10.95;;;2.45;;
27402;SDS011;14862;49.494;8.530;2023-03-31T04:18:18;9.80;;;3.10;;
27402;SDS011;14862;49.494;8.530;2023-03-31T04:20:49;10.88;;;2.17;;
27402;SDS011;14862;49.494;8.530;2023-03-31T04:23:19;5.95;;;2.40;;
27402;SDS011;14862;49.494;8.530;2023-03-31T04:25:45;8.32;;;2.50;;
27402;SDS011;14862;49.494;8.530;2023-03-31T04:28:10;9.82;;;3.22;;
27402;SDS011;14862;49.494;8.530;2023-03-31T04:30:38;9.38;;;3.17;;
27402;SDS011;14862;49.494;8.530;2023-03-31T04:33:03;6.15;;;1.98;;
27402;SDS011;14862;49.494;8.530;2023-03-31T04:35:30;6.97;;;2.83;;
27402;SDS011;14862;49.494;8.530;2023-03-31T04:38:23;7.57;;;2.33;;
27402;SDS011;14862;49.494;8.530;2023-03-31T04:40:51;4.80;;;1.70;;
27402;SDS011;14862;49.494;8.530;2023-03-31T04:43:25;6.70;;;2.38;;
27402;SDS011;14862;49.494;8.530;2023-03-31T04:45:50;9.02;;;3.28;;
27402;SDS011;14862;49.494;8.530;2023-03-31T04:48:16;9.67;;;2.27;;
27402;SDS011;14862;49.494;8.530;2023-03-31T04:50:41;9.25;;;2.72;;
27402;SDS011;14862;49.494;8.530;2023-03-31T04:53:07;4.72;;;2.00;;
27402;SDS011;14862;49.494;8.530;2023-03-31T04:55:32;10.90;;;2.88;;
27402;SDS011;14862;49.494;8.530;2023-03-31T04:57:57;9.98;;;1.95;;
27402;SDS011;14862;49.494;8.530;2023-03-31T05:00:23;5.78;;;1.75;;
27402;SDS011;14862;49.494;8.530;2023-03-31T05:02:48;7.18;;;1.90;;
27402;SDS011;14862;49.494;8.530;2023-03-31T05:05:13;9.30;;;2.60;;
27402;SDS011;14862;49.494;8.530;2023-03-31T05:07:39;12.27;;;2.47;;
27402;SDS011;14862;49.494;8.530;2023-03-31T05:10:05;7.00;;;2.22;;
27402;SDS011;14862;49.494;8.530;2023-03-31T05:12:36;6.50;;;2.20;;
27402;SDS011;14862;49.494;8.530;2023-03-31T05:15:02;8.75;;;1.88;;
27402;SDS011;14862;49.494;8.530;2023-03-31T05:17:30;13.32;;;2.55;;
27402;SDS011;14862;49.494;8.530;2023-03-31T05:19:55;7.75;;;2.10;;
27402;SDS011;14862;49.494;8.530;2023-03-31T05:22:20;4.57;;;2.47;;
27402;SDS011;14862;49.494;8.530;2023-03-31T05:24:46;9.02;;;2.90;;
27402;SDS011;14862;49.494;8.530;2023-03-31T05:27:11;8.15;;;2.10;;
27402;SDS011;14862;49.494;8.530;2023-03-31T05:29:37;10.38;;;3.05;;
27402;SDS011;14862;49.494;8.530;2023-03-31T05:32:02;9.35;;;2.22;;
27402;SDS011;14862;49.494;8.530;2023-03-31T05:34:28;14.13;;;3.33;;
27402;SDS011;14862;49.494;8.530;2023-03-31T05:36:53;7.32;;;3.13;;
27402;SDS011;14862;49.494;8.530;2023-03-31T05:39:18;13.75;;;2.70;;
27402;SDS011;14862;49.494;8.530;2023-03-31T05:41:43;9.73;;;3.80;;
27402;SDS011;14862;49.494;8.530;2023-03-31T05:44:09;14.00;;;3.30;;
27402;SDS011;14862;49.494;8.530;2023-03-31T05:46:35;9.38;;;3.08;;
27402;SDS011;14862;49.494;8.530;2023-03-31T05:49:00;10.20;;;2.93;;
27402;SDS011;14862;49.494;8.530;2023-03-31T05:51:26;12.80;;;3.50;;
27402;SDS011;14862;49.494;8.530;2023-03-31T05:53:51;12.35;;;4.43;;
27402;SDS011;14862;49.494;8.530;2023-03-31T05:56:16;9.63;;;3.33;;
27402;SDS011;14862;49.494;8.530;2023-03-31T05:58:42;13.27;;;4.27;;
27402;SDS011;14862;49.494;8.530;2023-03-31T06:01:11;7.38;;;3.25;;
27402;SDS011;14862;49.494;8.530;2023-03-31T06:03:37;13.10;;;3.40;;
27402;SDS011;14862;49.494;8.530;2023-03-31T06:06:03;13.52;;;3.45;;
27402;SDS011;14862;49.494;8.530;2023-03-31T06:08:29;9.43;;;3.38;;
27402;SDS011;14862;49.494;8.530;2023-03-31T06:10:55;10.00;;;3.42;;
27402;SDS011;14862;49.494;8.530;2023-03-31T06:13:20;8.38;;;3.83;;
27402;SDS011;14862;49.494;8.530;2023-03-31T06:15:54;11.77;;;3.67;;
27402;SDS011;14862;49.494;8.530;2023-03-31T06:18:20;14.88;;;4.35;;
27402;SDS011;14862;49.494;8.530;2023-03-31T06:20:45;10.65;;;4.32;;
27402;SDS011;14862;49.494;8.530;2023-03-31T06:23:11;9.90;;;3.50;;
27402;SDS011;14862;49.494;8.530;2023-03-31T06:25:39;8.30;;;3.33;;
27402;SDS011;14862;49.494;8.530;2023-03-31T06:28:04;11.05;;;3.92;;
27402;SDS011;14862;49.494;8.530;2023-03-31T06:30:33;11.60;;;3.95;;
27402;SDS011;14862;49.494;8.530;2023-03-31T06:32:59;15.00;;;4.60;;
27402;SDS011;14862;49.494;8.530;2023-03-31T06:35:24;14.13;;;5.40;;
27402;SDS011;14862;49.494;8.530;2023-03-31T06:37:49;14.23;;;4.75;;
27402;SDS011;14862;49.494;8.530;2023-03-31T06:40:14;17.52;;;5.72;;
27402;SDS011;14862;49.494;8.530;2023-03-31T06:42:40;10.73;;;4.28;;
27402;SDS011;14862;49.494;8.530;2023-03-31T06:45:05;11.52;;;4.00;;
27402;SDS011;14862;49.494;8.530;2023-03-31T06:47:30;12.00;;;3.83;;
27402;SDS011;14862;49.494;8.530;2023-03-31T06:49:56;8.85;;;4.00;;
27402;SDS011;14862;49.494;8.530;2023-03-31T06:52:21;15.67;;;4.23;;
27402;SDS011;14862;49.494;8.530;2023-03-31T06:54:46;11.25;;;3.88;;
27402;SDS011;14862;49.494;8.530;2023-03-31T06:57:11;7.75;;;4.93;;
27402;SDS011;14862;49.494;8.530;2023-03-31T06:59:36;14.40;;;5.32;;
27402;SDS011;14862;49.494;8.530;2023-03-31T07:02:02;14.30;;;3.90;;
27402;SDS011;14862;49.494;8.530;2023-03-31T07:04:27;6.90;;;4.55;;
27402;SDS011;14862;49.494;8.530;2023-03-31T07:06:52;8.60;;;4.50;;
27402;SDS011;14862;49.494;8.530;2023-03-31T07:09:17;10.33;;;4.77;;
27402;SDS011;14862;49.494;8.530;2023-03-31T07:11:45;10.40;;;4.25;;
27402;SDS011;14862;49.494;8.530;2023-03-31T07:14:10;9.53;;;4.43;;
27402;SDS011;14862;49.494;8.530;2023-03-31T07:16:35;9.82;;;4.65;;
27402;SDS011;14862;49.494;8.530;2023-03-31T07:19:01;13.25;;;6.15;;
27402;SDS011;14862;49.494;8.530;2023-03-31T07:21:27;9.02;;;4.57;;
27402;SDS011;14862;49.494;8.530;2023-03-31T07:23:52;14.07;;;5.32;;
27402;SDS011;14862;49.494;8.530;2023-03-31T07:26:18;12.30;;;5.70;;
27402;SDS011;14862;49.494;8.530;2023-03-31T07:28:43;12.80;;;5.57;;
27402;SDS011;14862;49.494;8.530;2023-03-31T07:31:11;14.80;;;5.72;;
27402;SDS011;14862;49.494;8.530;2023-03-31T07:33:37;8.48;;;5.45;;
27402;SDS011;14862;49.494;8.530;2023-03-31T07:36:03;12.40;;;5.22;;
27402;SDS011;14862;49.494;8.530;2023-03-31T07:38:28;13.63;;;5.60;;
27402;SDS011;14862;49.494;8.530;2023-03-31T07:40:53;9.95;;;5.18;;
27402;SDS011;14862;49.494;8.530;2023-03-31T07:43:19;12.40;;;4.90;;
27402;SDS011;14862;49.494;8.530;2023-03-31T07:45:44;11.35;;;5.10;;
27402;SDS011;14862;49.494;8.530;2023-03-31T07:48:09;9.00;;;4.35;;
27402;SDS011;14862;49.494;8.530;2023-03-31T07:50:34;9.07;;;4.90;;
27402;SDS011;14862;49.494;8.530;2023-03-31T07:53:00;8.18;;;3.53;;
27402;SDS011;14862;49.494;8.530;2023-03-31T07:55:25;9.57;;;4.22;;
27402;SDS011;14862;49.494;8.530;2023-03-31T07:57:51;8.38;;;3.80;;
27402;SDS011;14862;49.494;8.530;2023-03-31T08:00:16;10.25;;;3.63;;
27402;SDS011;14862;49.494;8.530;2023-03-31T08:02:42;7.65;;;3.90;;
27402;SDS011;14862;49.494;8.530;2023-03-31T08:05:07;8.30;;;3.88;;
27402;SDS011;14862;49.494;8.530;2023-03-31T08:07:33;8.88;;;4.20;;
27402;SDS011;14862;49.494;8.530;2023-03-31T08:09:59;14.13;;;5.78;;
27402;SDS011;14862;49.494;8.530;2023-03-31T08:12:24;8.98;;;4.05;;
27402;SDS011;14862;49.494;8.530;2023-03-31T08:14:50;9.15;;;4.28;;
27402;SDS011;14862;49.494;8.530;2023-03-31T08:17:15;8.32;;;3.70;;
27402;SDS011;14862;49.494;8.530;2023-03-31T08:19:40;7.30;;;3.65;;
27402;SDS011;14862;49.494;8.530;2023-03-31T08:22:05;9.07;;;3.47;;
27402;SDS011;14862;49.494;8.530;2023-03-31T08:24:31;12.20;;;3.97;;
27402;SDS011;14862;49.494;8.530;2023-03-31T08:26:56;7.95;;;3.45;;
27402;SDS011;14862;49.494;8.530;2023-03-31T08:29:21;8.15;;;3.60;;
27402;SDS011;14862;49.494;8.530;2023-03-31T08:31:46;9.18;;;3.45;;
27402;SDS011;14862;49.494;8.530;2023-03-31T08:34:12;9.77;;;3.58;;
27402;SDS011;14862;49.494;8.530;2023-03-31T08:36:37;7.00;;;3.78;;
27402;SDS011;14862;49.494;8.530;2023-03-31T08:39:02;7.35;;;3.88;;
27402;SDS011;14862;49.494;8.530;2023-03-31T08:44:10;9.18;;;4.40;;
27402;SDS011;14862;49.494;8.530;2023-03-31T08:46:38;8.65;;;4.40;;
27402;SDS011;14862;49.494;8.530;2023-03-31T08:49:03;10.35;;;4.03;;
27402;SDS011;14862;49.494;8.530;2023-03-31T08:51:31;9.05;;;3.55;;
27402;SDS011;14862;49.494;8.530;2023-03-31T08:54:04;10.73;;;4.53;;
27402;SDS011;14862;49.494;8.530;2023-03-31T08:56:35;8.27;;;3.78;;
27402;SDS011;14862;49.494;8.530;2023-03-31T08:59:01;8.45;;;3.67;;
27402;SDS011;14862;49.494;8.530;2023-03-31T09:06:40;8.40;;;4.13;;
27402;SDS011;14862;49.494;8.530;2023-03-31T09:09:11;8.77;;;3.65;;
27402;SDS011;14862;49.494;8.530;2023-03-31T09:11:43;8.90;;;4.00;;
27402;SDS011;14862;49.494;8.530;2023-03-31T09:14:24;10.05;;;4.40;;
27402;SDS011;14862;49.494;8.530;2023-03-31T09:16:57;11.27;;;4.40;;
27402;SDS011;14862;49.494;8.530;2023-03-31T09:21:55;10.57;;;4.40;;
27402;SDS011;14862;49.494;8.530;2023-03-31T09:24:23;15.30;;;5.13;;
27402;SDS011;14862;49.494;8.530;2023-03-31T09:26:50;8.48;;;3.70;;
27402;SDS011;14862;49.494;8.530;2023-03-31T09:29:21;10.25;;;3.63;;
27402;SDS011;14862;49.494;8.530;2023-03-31T09:31:48;9.43;;;2.95;;
27402;SDS011;14862;49.494;8.530;2023-03-31T09:34:23;10.10;;;3.45;;
27402;SDS011;14862;49.494;8.530;2023-03-31T09:36:48;8.10;;;3.08;;
27402;SDS011;14862;49.494;8.530;2023-03-31T09:39:13;11.57;;;3.57;;
27402;SDS011;14862;49.494;8.530;2023-03-31T09:41:45;15.75;;;4.03;;
27402;SDS011;14862;49.494;8.530;2023-03-31T09:44:22;7.18;;;2.78;;
27402;SDS011;14862;49.494;8.530;2023-03-31T09:46:48;8.98;;;2.58;;
27402;SDS011;14862;49.494;8.530;2023-03-31T09:49:15;21.17;;;3.13;;
27402;SDS011;14862;49.494;8.530;2023-03-31T09:51:43;7.78;;;2.88;;
27402;SDS011;14862;49.494;8.530;2023-03-31T09:54:15;10.57;;;2.70;;
27402;SDS011;14862;49.494;8.530;2023-03-31T09:56:50;6.05;;;2.40;;
27402;SDS011;14862;49.494;8.530;2023-03-31T09:59:33;13.55;;;3.35;;
27402;SDS011;14862;49.494;8.530;2023-03-31T10:01:59;10.77;;;2.72;;
27402;SDS011;14862;49.494;8.530;2023-03-31T10:04:27;5.45;;;2.35;;
27402;SDS011;14862;49.494;8.530;2023-03-31T10:06:53;7.78;;;2.33;;
27402;SDS011;14862;49.494;8.530;2023-03-31T10:09:41;7.45;;;2.50;;
27402;SDS011;14862;49.494;8.530;2023-03-31T10:12:05;4.10;;;2.63;;
27402;SDS011;14862;49.494;8.530;2023-03-31T10:14:43;8.35;;;3.10;;
27402;SDS011;14862;49.494;8.530;2023-03-31T10:17:12;12.82;;;2.83;;
27402;SDS011;14862;49.494;8.530;2023-03-31T10:19:38;8.90;;;3.50;;
27402;SDS011;14862;49.494;8.530;2023-03-31T10:24:45;7.65;;;3.25;;
27402;SDS011;14862;49.494;8.530;2023-03-31T10:27:26;9.20;;;2.25;;
27402;SDS011;14862;49.494;8.530;2023-03-31T10:29:53;9.70;;;2.70;;
27402;SDS011;14862;49.494;8.530;2023-03-31T10:32:28;8.13;;;2.40;;
27402;SDS011;14862;49.494;8.530;2023-03-31T10:34:58;9.80;;;3.15;;
27402;SDS011;14862;49.494;8.530;2023-03-31T10:37:25;10.30;;;3.13;;
27402;SDS011;14862;49.494;8.530;2023-03-31T10:40:00;8.95;;;2.75;;
27402;SDS011;14862;49.494;8.530;2023-03-31T10:42:28;8.90;;;3.17;;
27402;SDS011;14862;49.494;8.530;2023-03-31T10:45:08;9.95;;;2.72;;
27402;SDS011;14862;49.494;8.530;2023-03-31T10:47:34;8.15;;;2.47;;
27402;SDS011;14862;49.494;8.530;2023-03-31T10:50:00;10.35;;;2.70;;
27402;SDS011;14862;49.494;8.530;2023-03-31T10:52:28;7.20;;;2.17;;
27402;SDS011;14862;49.494;8.530;2023-03-31T10:54:57;6.15;;;2.25;;
27402;SDS011;14862;49.494;8.530;2023-03-31T10:57:30;6.50;;;2.13;;
27402;SDS011;14862;49.494;8.530;2023-03-31T11:07:50;15.07;;;3.50;;
27402;SDS011;14862;49.494;8.530;2023-03-31T11:15:29;9.43;;;2.58;;
27402;SDS011;14862;49.494;8.530;2023-03-31T11:20:30;9.70;;;2.47;;
27402;SDS011;14862;49.494;8.530;2023-03-31T11:23:18;7.85;;;2.00;;
27402;SDS011;14862;49.494;8.530;2023-03-31T11:30:48;5.47;;;1.80;;
27402;SDS011;14862;49.494;8.530;2023-03-31T11:36:35;8.73;;;2.35;;
27402;SDS011;14862;49.494;8.530;2023-03-31T11:38:43;7.72;;;1.50;;
27402;SDS011;14862;49.494;8.530;2023-03-31T11:41:16;6.82;;;1.40;;
27402;SDS011;14862;49.494;8.530;2023-03-31T11:43:50;6.80;;;2.20;;
27402;SDS011;14862;49.494;8.530;2023-03-31T11:46:24;5.10;;;1.80;;
27402;SDS011;14862;49.494;8.530;2023-03-31T11:48:58;6.93;;;1.48;;
27402;SDS011;14862;49.494;8.530;2023-03-31T11:51:26;3.25;;;1.40;;
27402;SDS011;14862;49.494;8.530;2023-03-31T11:53:53;4.95;;;1.42;;
27402;SDS011;14862;49.494;8.530;2023-03-31T11:56:20;7.38;;;1.70;;
27402;SDS011;14862;49.494;8.530;2023-03-31T11:58:53;6.63;;;1.67;;
27402;SDS011;14862;49.494;8.530;2023-03-31T12:04:03;5.85;;;1.52;;
27402;SDS011;14862;49.494;8.530;2023-03-31T12:06:30;10.20;;;1.98;;
27402;SDS011;14862;49.494;8.530;2023-03-31T12:09:02;13.57;;;2.55;;
27402;SDS011;14862;49.494;8.530;2023-03-31T12:19:59;6.90;;;2.03;;
27402;SDS011;14862;49.494;8.530;2023-03-31T12:24:51;8.88;;;2.00;;
27402;SDS011;14862;49.494;8.530;2023-03-31T12:32:33;5.82;;;1.52;;
27402;SDS011;14862;49.494;8.530;2023-03-31T12:35:12;6.35;;;1.67;;
27402;SDS011;14862;49.494;8.530;2023-03-31T12:42:54;5.80;;;1.13;;
27402;SDS011;14862;49.494;8.530;2023-03-31T12:45:29;2.38;;;0.80;;
27402;SDS011;14862;49.494;8.530;2023-03-31T12:50:59;3.95;;;1.00;;
27402;SDS011;14862;49.494;8.530;2023-03-31T12:56:10;2.60;;;0.60;;
27402;SDS011;14862;49.494;8.530;2023-03-31T12:58:36;3.42;;;0.93;;
27402;SDS011;14862;49.494;8.530;2023-03-31T13:05:59;3.33;;;1.00;;
27402;SDS011;14862;49.494;8.530;2023-03-31T13:11:09;3.45;;;0.88;;
27402;SDS011;14862;49.494;8.530;2023-03-31T13:13:34;6.72;;;1.27;;
27402;SDS011;14862;49.494;8.530;2023-03-31T13:16:00;4.63;;;1.80;;
27402;SDS011;14862;49.494;8.530;2023-03-31T13:18:32;5.47;;;1.38;;
27402;SDS011;14862;49.494;8.530;2023-03-31T13:20:58;5.93;;;2.13;;
27402;SDS011;14862;49.494;8.530;2023-03-31T13:23:24;5.45;;;1.42;;
27402;SDS011;14862;49.494;8.530;2023-03-31T13:33:13;5.80;;;1.45;;
27402;SDS011;14862;49.494;8.530;2023-03-31T13:35:40;4.22;;;1.55;;
27402;SDS011;14862;49.494;8.530;2023-03-31T13:38:08;4.68;;;1.27;;
27402;SDS011;14862;49.494;8.530;2023-03-31T13:40:47;2.70;;;1.15;;
27402;SDS011;14862;49.494;8.530;2023-03-31T13:45:44;4.13;;;1.60;;
27402;SDS011;14862;49.494;8.530;2023-03-31T14:06:57;5.95;;;1.65;;
27402;SDS011;14862;49.494;8.530;2023-03-31T14:09:24;5.07;;;1.60;;
27402;SDS011;14862;49.494;8.530;2023-03-31T14:11:50;5.97;;;1.35;;
27402;SDS011;14862;49.494;8.530;2023-03-31T14:14:16;4.37;;;1.17;;
27402;SDS011;14862;49.494;8.530;2023-03-31T14:16:50;6.40;;;1.25;;
27402;SDS011;14862;49.494;8.530;2023-03-31T14:19:38;6.22;;;1.60;;
27402;SDS011;14862;49.494;8.530;2023-03-31T14:24:35;6.37;;;1.87;;
27402;SDS011;14862;49.494;8.530;2023-03-31T14:32:14;4.37;;;1.67;;
27402;SDS011;14862;49.494;8.530;2023-03-31T14:37:08;8.55;;;2.10;;
27402;SDS011;14862;49.494;8.530;2023-03-31T14:39:42;6.05;;;1.55;;
27402;SDS011;14862;49.494;8.530;2023-03-31T14:42:15;7.95;;;1.50;;
27402;SDS011;14862;49.494;8.530;2023-03-31T14:44:41;6.33;;;1.40;;
27402;SDS011;14862;49.494;8.530;2023-03-31T14:47:21;6.60;;;1.88;;
27402;SDS011;14862;49.494;8.530;2023-03-31T14:49:47;6.10;;;1.50;;
27402;SDS011;14862;49.494;8.530;2023-03-31T14:52:22;4.85;;;1.20;;
27402;SDS011;14862;49.494;8.530;2023-03-31T14:54:48;7.43;;;1.50;;
27402;SDS011;14862;49.494;8.530;2023-03-31T14:57:18;7.18;;;1.65;;
27402;SDS011;14862;49.494;8.530;2023-03-31T14:59:45;4.40;;;1.65;;
27402;SDS011;14862;49.494;8.530;2023-03-31T15:02:16;5.10;;;2.17;;
27402;SDS011;14862;49.494;8.530;2023-03-31T15:04:42;4.75;;;1.48;;
27402;SDS011;14862;49.494;8.530;2023-03-31T15:07:10;5.93;;;1.55;;
27402;SDS011;14862;49.494;8.530;2023-03-31T15:09:36;5.53;;;1.17;;
27402;SDS011;14862;49.494;8.530;2023-03-31T15:12:11;6.72;;;1.90;;
27402;SDS011;14862;49.494;8.530;2023-03-31T15:14:44;5.35;;;1.73;;
27402;SDS011;14862;49.494;8.530;2023-03-31T15:17:23;7.15;;;1.30;;
27402;SDS011;14862;49.494;8.530;2023-03-31T15:19:57;5.85;;;1.88;;
27402;SDS011;14862;49.494;8.530;2023-03-31T15:22:23;5.93;;;2.08;;
27402;SDS011;14862;49.494;8.530;2023-03-31T15:24:48;9.13;;;1.98;;
27402;SDS011;14862;49.494;8.530;2023-03-31T15:29:49;7.35;;;2.10;;
27402;SDS011;14862;49.494;8.530;2023-03-31T15:32:26;8.65;;;1.73;;
27402;SDS011;14862;49.494;8.530;2023-03-31T15:34:52;6.80;;;1.67;;
27402;SDS011;14862;49.494;8.530;2023-03-31T15:37:21;8.32;;;2.85;;
27402;SDS011;14862;49.494;8.530;2023-03-31T15:39:48;6.13;;;1.98;;
27402;SDS011;14862;49.494;8.530;2023-03-31T15:42:13;4.53;;;1.60;;
27402;SDS011;14862;49.494;8.530;2023-03-31T15:44:45;10.23;;;2.35;;
27402;SDS011;14862;49.494;8.530;2023-03-31T15:47:12;4.88;;;1.48;;
27402;SDS011;14862;49.494;8.530;2023-03-31T15:49:50;6.88;;;1.75;;
27402;SDS011;14862;49.494;8.530;2023-03-31T15:52:35;7.80;;;2.00;;
27402;SDS011;14862;49.494;8.530;2023-03-31T15:55:23;4.65;;;1.65;;
27402;SDS011;14862;49.494;8.530;2023-03-31T15:57:48;6.65;;;1.55;;
27402;SDS011;14862;49.494;8.530;2023-03-31T16:02:57;6.07;;;2.47;;
27402;SDS011;14862;49.494;8.530;2023-03-31T16:07:49;8.80;;;1.80;;
27402;SDS011;14862;49.494;8.530;2023-03-31T16:10:15;5.20;;;1.23;;
27402;SDS011;14862;49.494;8.530;2023-03-31T16:12:47;3.55;;;1.35;;
27402;SDS011;14862;49.494;8.530;2023-03-31T16:15:15;9.48;;;2.10;;
27402;SDS011;14862;49.494;8.530;2023-03-31T16:17:45;4.05;;;1.50;;
27402;SDS011;14862;49.494;8.530;2023-03-31T16:20:18;5.90;;;1.80;;
27402;SDS011;14862;49.494;8.530;2023-03-31T16:22:45;5.43;;;1.90;;
27402;SDS011;14862;49.494;8.530;2023-03-31T16:25:13;7.57;;;1.92;;
27402;SDS011;14862;49.494;8.530;2023-03-31T16:27:44;6.63;;;2.00;;
27402;SDS011;14862;49.494;8.530;2023-03-31T16:30:15;7.50;;;2.22;;
27402;SDS011;14862;49.494;8.530;2023-03-31T16:35:35;6.57;;;1.83;;
27402;SDS011;14862;49.494;8.530;2023-03-31T16:38:01;5.32;;;1.77;;
27402;SDS011;14862;49.494;8.530;2023-03-31T16:40:29;5.57;;;1.88;;
27402;SDS011;14862;49.494;8.530;2023-03-31T16:48:17;7.20;;;1.40;;
27402;SDS011;14862;49.494;8.530;2023-03-31T16:50:43;7.43;;;1.70;;
27402;SDS011;14862;49.494;8.530;2023-03-31T16:53:08;7.50;;;1.80;;
27402;SDS011;14862;49.494;8.530;2023-03-31T16:55:35;5.22;;;1.98;;
27402;SDS011;14862;49.494;8.530;2023-03-31T16:58:01;8.80;;;2.33;;
27402;SDS011;14862;49.494;8.530;2023-03-31T17:00:28;6.03;;;1.40;;
27402;SDS011;14862;49.494;8.530;2023-03-31T17:02:54;8.35;;;2.22;;
27402;SDS011;14862;49.494;8.530;2023-03-31T17:05:19;4.35;;;1.52;;
27402;SDS011;14862;49.494;8.530;2023-03-31T17:07:45;3.70;;;1.55;;
27402;SDS011;14862;49.494;8.530;2023-03-31T17:10:10;6.43;;;1.85;;
27402;SDS011;14862;49.494;8.530;2023-03-31T17:12:36;3.45;;;1.80;;
27402;SDS011;14862;49.494;8.530;2023-03-31T17:15:02;3.70;;;1.13;;
27402;SDS011;14862;49.494;8.530;2023-03-31T17:17:27;8.73;;;1.52;;
27402;SDS011;14862;49.494;8.530;2023-03-31T17:19:53;3.97;;;1.13;;
27402;SDS011;14862;49.494;8.530;2023-03-31T17:22:18;4.57;;;1.05;;
27402;SDS011;14862;49.494;8.530;2023-03-31T17:24:43;5.80;;;1.15;;
27402;SDS011;14862;49.494;8.530;2023-03-31T17:27:08;2.50;;;1.15;;
27402;SDS011;14862;49.494;8.530;2023-03-31T17:29:34;3.65;;;0.93;;
27402;SDS011;14862;49.494;8.530;2023-03-31T17:31:59;5.43;;;1.20;;
27402;SDS011;14862;49.494;8.530;2023-03-31T17:34:25;2.70;;;1.13;;
27402;SDS011;14862;49.494;8.530;2023-03-31T17:36:50;2.85;;;1.00;;
27402;SDS011;14862;49.494;8.530;2023-03-31T17:39:18;4.53;;;0.82;;
27402;SDS011;14862;49.494;8.530;2023-03-31T17:41:43;2.00;;;0.85;;
27402;SDS011;14862;49.494;8.530;2023-03-31T17:44:09;2.07;;;1.07;;
27402;SDS011;14862;49.494;8.530;2023-03-31T17:46:36;2.13;;;1.15;;
27402;SDS011;14862;49.494;8.530;2023-03-31T17:49:01;3.77;;;1.30;;
27402;SDS011;14862;49.494;8.530;2023-03-31T17:51:26;2.85;;;0.77;;